Nashville, Tennessee
Traffic Map
Current Weather Conditions
Nashville, Tennessee
Broken Clouds
Broken Clouds
59°
Feels Like: 59°
Wind Chill: 59° Ceiling: 4200
Heat Index: 59° Visibility: 10mi
Dew Point: 38° Wind: 14mph
Humidity: 46% Direction: 350° (N)
Pressure: 29.92in Gusts: 0mph
Raw Report DataKBNA 051953Z 35012KT 10SM BKN042 15/03 A2992 RMK AO2 SLP130 T01500033
Traffic Incident Summary
Active as of:
Severity:
Category:
InformationThere was an issue retrieving the traffic information for this location. Please try a different location or try again shortly.
Advertisements
Track Severe Weather on mobile